createdAt,value
2023-08-20T00:01:13.725Z,3.90
2023-08-20T00:03:42.043Z,4.10
2023-08-20T00:06:09.750Z,3.80
2023-08-20T00:08:36.720Z,3.77
2023-08-20T00:11:06.302Z,4.83
2023-08-20T00:13:33.245Z,3.60
2023-08-20T00:16:00.685Z,4.23
2023-08-20T00:18:28.268Z,4.57
2023-08-20T00:20:55.990Z,4.60
2023-08-20T00:23:23.460Z,4.27
2023-08-20T00:25:51.301Z,4.30
2023-08-20T00:28:21.635Z,4.23
2023-08-20T00:30:48.594Z,4.00
2023-08-20T00:33:15.552Z,4.20
2023-08-20T00:35:42.580Z,4.40
2023-08-20T00:38:09.612Z,3.93
2023-08-20T00:40:36.583Z,3.73
2023-08-20T00:43:03.806Z,4.20
2023-08-20T00:45:33.569Z,4.20
2023-08-20T00:48:00.741Z,3.93
2023-08-20T00:50:27.899Z,3.90
2023-08-20T00:52:54.835Z,4.10
2023-08-20T00:55:21.966Z,6.00
2023-08-20T00:57:48.995Z,5.70
2023-08-20T01:00:19.193Z,4.73
2023-08-20T01:02:48.762Z,5.83
2023-08-20T01:05:16.386Z,4.17
2023-08-20T01:07:53.397Z,4.30
2023-08-20T01:10:26.669Z,3.97
2023-08-20T01:12:54.036Z,3.87
2023-08-20T01:15:21.234Z,4.33
2023-08-20T01:17:50.934Z,4.73
2023-08-20T01:20:18.385Z,4.40
2023-08-20T01:23:09.665Z,5.53
2023-08-20T01:25:51.237Z,4.27
2023-08-20T01:28:26.751Z,5.07
2023-08-20T01:30:55.169Z,5.50
2023-08-20T01:33:22.141Z,4.30
2023-08-20T01:35:49.173Z,4.40
2023-08-20T01:38:16.329Z,5.67
2023-08-20T01:40:43.660Z,3.83
2023-08-20T01:43:10.798Z,3.97
2023-08-20T01:45:40.516Z,4.50
2023-08-20T01:48:07.922Z,4.20
2023-08-20T01:50:36.036Z,3.87
2023-08-20T01:53:03.124Z,4.80
2023-08-20T01:55:32.243Z,4.10
2023-08-20T01:57:59.738Z,3.60
2023-08-20T02:00:26.849Z,5.60
2023-08-20T02:02:56.417Z,4.53
2023-08-20T02:05:23.775Z,4.17
2023-08-20T02:07:50.735Z,4.00
2023-08-20T02:10:17.897Z,4.40
2023-08-20T02:12:45.022Z,5.27
2023-08-20T02:15:11.995Z,4.43
2023-08-20T02:17:39.200Z,4.00
2023-08-20T02:20:09.884Z,3.80
2023-08-20T02:22:36.959Z,4.00
2023-08-20T02:25:04.434Z,4.07
2023-08-20T02:27:31.425Z,4.57
2023-08-20T02:29:58.333Z,7.83
2023-08-20T02:32:25.566Z,3.90
2023-08-20T02:34:53.155Z,3.90
2023-08-20T02:37:22.801Z,4.50
2023-08-20T02:39:49.723Z,4.47
2023-08-20T02:42:16.762Z,4.53
2023-08-20T02:44:43.707Z,4.40
2023-08-20T02:47:10.657Z,4.77
2023-08-20T02:49:37.600Z,6.27
2023-08-20T02:52:05.176Z,4.20
2023-08-20T02:54:34.758Z,4.03
2023-08-20T02:57:01.726Z,4.37
2023-08-20T02:59:28.677Z,4.17
2023-08-20T03:01:55.719Z,4.63
2023-08-20T03:04:22.773Z,4.10
2023-08-20T03:06:49.861Z,4.40
2023-08-20T03:09:16.817Z,4.10
2023-08-20T03:11:46.334Z,6.00
2023-08-20T03:14:13.332Z,4.30
2023-08-20T03:16:40.299Z,4.97
2023-08-20T03:19:07.289Z,6.63
2023-08-20T03:21:34.305Z,4.93
2023-08-20T03:24:01.284Z,4.33
2023-08-20T03:26:28.280Z,5.13
2023-08-20T03:28:57.853Z,4.70
2023-08-20T03:31:24.868Z,4.00
2023-08-20T03:33:51.817Z,4.73
2023-08-20T03:36:18.812Z,3.93
2023-08-20T03:38:45.797Z,4.37
2023-08-20T03:41:12.796Z,4.40
2023-08-20T03:43:39.720Z,4.47
2023-08-20T03:46:09.340Z,4.63
2023-08-20T03:48:36.367Z,4.03
2023-08-20T03:51:03.520Z,3.97
2023-08-20T03:53:30.465Z,3.73
2023-08-20T03:55:57.386Z,3.50
2023-08-20T03:58:24.340Z,4.10
2023-08-20T04:00:51.258Z,4.07
2023-08-20T04:03:20.833Z,3.83
2023-08-20T04:05:47.802Z,4.40
2023-08-20T04:08:14.718Z,4.30
2023-08-20T04:10:44.329Z,4.07
2023-08-20T04:13:11.267Z,4.60
2023-08-20T04:15:38.250Z,4.53
2023-08-20T04:18:05.920Z,6.17
2023-08-20T04:20:35.878Z,4.27
2023-08-20T04:23:02.846Z,4.70
2023-08-20T04:25:29.855Z,6.50
2023-08-20T04:27:56.800Z,4.53
2023-08-20T04:30:23.760Z,4.90
2023-08-20T04:32:50.736Z,4.83
2023-08-20T04:35:17.748Z,4.57
2023-08-20T04:37:47.334Z,4.40
2023-08-20T04:40:15.406Z,4.40
2023-08-20T04:42:44.015Z,5.00
2023-08-20T04:45:11.441Z,4.20
2023-08-20T04:47:38.733Z,4.40
2023-08-20T04:50:06.636Z,4.83
2023-08-20T04:52:33.651Z,5.90
2023-08-20T04:55:03.738Z,4.33
2023-08-20T04:57:30.908Z,4.03
2023-08-20T04:59:57.944Z,4.47
2023-08-20T05:02:25.007Z,4.20
2023-08-20T05:04:52.255Z,4.77
2023-08-20T05:07:19.257Z,3.80
2023-08-20T05:09:46.220Z,4.77
2023-08-20T05:12:15.803Z,4.67
2023-08-20T05:14:42.744Z,3.93
2023-08-20T05:17:09.670Z,3.93
2023-08-20T05:19:36.642Z,5.17
2023-08-20T05:22:03.587Z,5.47
2023-08-20T05:24:30.572Z,4.83
2023-08-20T05:27:08.303Z,4.77
2023-08-20T05:29:38.234Z,6.07
2023-08-20T05:32:05.989Z,4.43
2023-08-20T05:34:32.903Z,4.83
2023-08-20T05:37:00.144Z,4.83
2023-08-20T05:39:27.189Z,4.90
2023-08-20T05:41:54.538Z,4.90
2023-08-20T05:44:21.808Z,4.63
2023-08-20T05:46:51.419Z,4.90
2023-08-20T05:49:18.346Z,4.83
2023-08-20T05:51:45.346Z,5.17
2023-08-20T05:54:12.367Z,5.60
2023-08-20T05:56:39.565Z,5.27
2023-08-20T05:59:06.484Z,5.20
2023-08-20T06:01:33.525Z,4.80
2023-08-20T06:04:03.283Z,4.50
2023-08-20T06:06:30.303Z,4.70
2023-08-20T06:09:08.603Z,5.07
2023-08-20T06:11:36.476Z,5.33
2023-08-20T06:14:03.825Z,5.20
2023-08-20T06:16:31.107Z,6.13
2023-08-20T06:18:59.329Z,5.07
2023-08-20T06:21:29.823Z,4.67
2023-08-20T06:23:56.957Z,4.33
2023-08-20T06:26:23.942Z,4.33
2023-08-20T06:28:50.896Z,5.03
2023-08-20T06:31:17.898Z,5.30
2023-08-20T06:33:44.883Z,5.00
2023-08-20T06:36:11.823Z,4.90
2023-08-20T06:38:41.388Z,4.43
2023-08-20T06:41:08.325Z,4.90
2023-08-20T06:43:35.290Z,4.33
2023-08-20T06:46:02.273Z,4.53
2023-08-20T06:48:29.305Z,3.90
2023-08-20T06:50:56.249Z,4.17
2023-08-20T06:53:23.219Z,4.50
2023-08-20T06:55:52.819Z,5.30
2023-08-20T06:58:19.755Z,4.00
2023-08-20T07:00:46.752Z,4.20
2023-08-20T07:03:13.720Z,3.83
2023-08-20T07:05:40.809Z,4.27
2023-08-20T07:08:07.740Z,3.97
2023-08-20T07:10:34.759Z,4.67
2023-08-20T07:13:04.667Z,3.80
2023-08-20T07:15:31.618Z,4.07
2023-08-20T07:17:58.614Z,4.10
2023-08-20T07:20:25.652Z,4.30
2023-08-20T07:22:52.650Z,4.10
2023-08-20T07:25:19.569Z,4.17
2023-08-20T07:27:46.568Z,3.90
2023-08-20T07:30:16.184Z,3.70
2023-08-20T07:32:43.169Z,3.93
2023-08-20T07:35:11.790Z,3.97
2023-08-20T07:37:39.112Z,3.80
2023-08-20T07:40:07.618Z,3.73
2023-08-20T07:42:34.538Z,3.70
2023-08-20T07:45:01.473Z,3.40
2023-08-20T07:47:31.153Z,3.83
2023-08-20T07:49:58.178Z,3.60
2023-08-20T07:52:25.180Z,3.63
2023-08-20T07:54:52.218Z,4.03
2023-08-20T07:57:19.184Z,4.20
2023-08-20T07:59:46.270Z,4.43
2023-08-20T08:02:13.240Z,4.27
2023-08-20T08:04:46.179Z,4.63
2023-08-20T08:07:13.517Z,4.00
2023-08-20T08:09:40.460Z,4.43
2023-08-20T08:12:07.675Z,3.60
2023-08-20T08:14:34.722Z,3.83
2023-08-20T08:17:01.665Z,3.90
2023-08-20T08:19:28.649Z,4.00
2023-08-20T08:21:58.195Z,3.67
2023-08-20T08:24:25.241Z,3.67
2023-08-20T08:26:52.156Z,3.83
2023-08-20T08:29:19.106Z,3.53
2023-08-20T08:31:46.024Z,3.90
2023-08-20T08:34:12.930Z,3.20
2023-08-20T08:36:39.865Z,3.20
2023-08-20T08:39:09.394Z,2.93
2023-08-20T08:41:39.728Z,3.17
2023-08-20T08:44:09.126Z,3.20
2023-08-20T08:46:37.188Z,2.97
2023-08-20T08:49:04.649Z,3.43
2023-08-20T08:51:32.775Z,2.87
2023-08-20T08:54:01.226Z,3.03
2023-08-20T08:56:30.821Z,3.73
2023-08-20T08:58:57.748Z,3.40
2023-08-20T09:01:24.878Z,2.67
2023-08-20T09:03:52.106Z,3.10
2023-08-20T09:06:19.064Z,3.80
2023-08-20T09:08:46.048Z,3.10
2023-08-20T09:11:12.979Z,3.63
2023-08-20T09:13:43.940Z,3.27
2023-08-20T09:16:12.129Z,2.97
2023-08-20T09:18:39.782Z,3.07
2023-08-20T09:21:08.087Z,3.43
2023-08-20T09:23:35.169Z,3.47
2023-08-20T09:26:03.827Z,3.33
2023-08-20T09:28:41.218Z,3.40
2023-08-20T09:31:11.936Z,3.10
2023-08-20T09:33:50.201Z,3.67
2023-08-20T09:36:17.556Z,3.45
2023-08-20T09:38:44.644Z,3.07
2023-08-20T09:41:13.533Z,2.83
2023-08-20T09:43:40.538Z,3.57
2023-08-20T09:46:11.638Z,3.55
2023-08-20T09:48:42.501Z,3.03
2023-08-20T09:51:12.668Z,3.58
2023-08-20T09:53:48.493Z,3.10
2023-08-20T09:56:22.736Z,3.17
2023-08-20T09:58:50.962Z,3.28
2023-08-20T10:01:21.356Z,3.47
2023-08-20T10:03:48.594Z,3.08
2023-08-20T10:06:15.622Z,3.63
2023-08-20T10:08:42.961Z,4.07
2023-08-20T10:11:10.028Z,3.65
2023-08-20T10:13:38.463Z,3.55
2023-08-20T10:16:05.842Z,2.88
2023-08-20T10:18:35.829Z,3.30
2023-08-20T10:21:04.475Z,2.88
2023-08-20T10:23:32.018Z,3.15
2023-08-20T10:26:08.373Z,3.38
2023-08-20T10:28:35.716Z,3.40
2023-08-20T10:31:08.272Z,4.05
2023-08-20T10:33:39.761Z,3.20
2023-08-20T10:36:11.022Z,2.95
2023-08-20T10:38:38.496Z,3.05
2023-08-20T10:41:08.226Z,2.65
2023-08-20T10:43:36.088Z,2.83
2023-08-20T10:46:15.328Z,3.58
2023-08-20T10:48:48.517Z,2.90
2023-08-20T10:51:16.864Z,2.95
2023-08-20T10:53:46.389Z,2.85
2023-08-20T10:56:15.058Z,3.17
2023-08-20T10:58:46.747Z,3.60
2023-08-20T11:01:14.779Z,3.53
2023-08-20T11:03:44.927Z,3.10
2023-08-20T11:06:12.251Z,4.78
2023-08-20T11:08:39.750Z,2.83
2023-08-20T11:11:07.829Z,2.80
2023-08-20T11:13:35.345Z,3.33
2023-08-20T11:16:04.381Z,2.80
2023-08-20T11:18:32.129Z,2.70
2023-08-20T11:21:02.288Z,2.90
2023-08-20T11:23:29.697Z,3.17
2023-08-20T11:25:57.476Z,2.45
2023-08-20T11:28:29.147Z,2.58
2023-08-20T11:30:56.591Z,2.67
2023-08-20T11:33:24.109Z,3.67
2023-08-20T11:35:52.561Z,2.58
2023-08-20T11:38:24.004Z,2.70
2023-08-20T11:40:51.037Z,2.60
2023-08-20T11:43:18.083Z,2.45
2023-08-20T11:45:49.343Z,2.45
2023-08-20T11:48:17.094Z,2.30
2023-08-20T11:50:44.591Z,2.10
2023-08-20T11:53:12.164Z,2.40
2023-08-20T11:55:42.153Z,2.50
2023-08-20T11:58:13.484Z,2.45
2023-08-20T12:00:40.745Z,2.33
2023-08-20T12:03:09.037Z,2.80
2023-08-20T12:05:36.141Z,2.40
2023-08-20T12:08:04.802Z,3.55
2023-08-20T12:10:33.396Z,3.33
2023-08-20T12:13:03.419Z,3.40
2023-08-20T12:15:30.368Z,2.72
2023-08-20T12:17:58.801Z,2.58
2023-08-20T12:20:28.959Z,3.10
2023-08-20T12:22:56.058Z,2.83
2023-08-20T12:25:23.059Z,3.67
2023-08-20T12:27:50.004Z,3.17
2023-08-20T12:30:19.779Z,2.70
2023-08-20T12:32:46.742Z,2.63
2023-08-20T12:35:13.792Z,2.35
2023-08-20T12:37:40.712Z,2.45
2023-08-20T12:40:08.896Z,2.35
2023-08-20T12:42:35.818Z,3.40
2023-08-20T12:45:02.845Z,2.50
2023-08-20T12:47:32.415Z,3.55
2023-08-20T12:49:59.377Z,2.40
2023-08-20T12:52:26.318Z,2.45
2023-08-20T12:54:53.271Z,2.08
2023-08-20T12:57:20.189Z,2.50
2023-08-20T12:59:47.132Z,2.17
2023-08-20T13:02:14.087Z,2.35
2023-08-20T13:04:44.801Z,2.40
2023-08-20T13:07:13.237Z,2.13
2023-08-20T13:09:40.831Z,2.17
2023-08-20T13:12:11.268Z,2.42
2023-08-20T13:14:38.834Z,2.55
2023-08-20T13:17:06.728Z,2.58
2023-08-20T13:19:33.709Z,2.45
2023-08-20T13:22:03.320Z,2.08
2023-08-20T13:24:30.254Z,2.35
2023-08-20T13:26:57.194Z,2.08
2023-08-20T13:29:24.210Z,2.78
2023-08-20T13:31:51.184Z,2.28
2023-08-20T13:34:18.134Z,2.40
2023-08-20T13:36:45.086Z,2.30
2023-08-20T13:39:14.718Z,1.90
2023-08-20T13:41:41.950Z,3.00
2023-08-20T13:44:09.217Z,2.38
2023-08-20T13:46:36.996Z,2.40
2023-08-20T13:49:04.512Z,2.10
2023-08-20T13:51:31.953Z,2.10
2023-08-20T13:53:59.022Z,3.25
2023-08-20T13:56:28.605Z,2.33
2023-08-20T13:58:55.606Z,2.53
2023-08-20T14:01:22.628Z,2.50
2023-08-20T14:03:49.572Z,2.00
2023-08-20T14:06:16.491Z,2.30
2023-08-20T14:08:43.460Z,2.38
2023-08-20T14:11:10.423Z,3.00
2023-08-20T14:13:39.953Z,1.80
2023-08-20T14:16:06.996Z,2.38
2023-08-20T14:18:33.983Z,2.40
2023-08-20T14:21:00.918Z,2.25
2023-08-20T14:23:27.844Z,2.13
2023-08-20T14:25:54.828Z,2.08
2023-08-20T14:28:21.869Z,2.10
2023-08-20T14:30:51.794Z,2.22
2023-08-20T14:33:18.879Z,1.95
2023-08-20T14:35:45.851Z,2.15
2023-08-20T14:38:12.839Z,2.20
2023-08-20T14:40:40.966Z,2.83
2023-08-20T14:43:08.021Z,4.13
2023-08-20T14:45:34.965Z,1.92
2023-08-20T14:48:04.932Z,2.38
2023-08-20T14:50:31.927Z,2.00
2023-08-20T14:52:58.976Z,2.17
2023-08-20T14:55:26.378Z,2.10
2023-08-20T14:57:54.090Z,2.13
2023-08-20T15:00:21.392Z,1.70
2023-08-20T15:02:48.387Z,2.15
2023-08-20T15:05:18.176Z,2.17
2023-08-20T15:07:45.149Z,2.33
2023-08-20T15:10:12.073Z,2.05
2023-08-20T15:12:39.140Z,1.92
2023-08-20T15:15:09.430Z,1.75
2023-08-20T15:17:36.919Z,1.70
2023-08-20T15:20:04.934Z,2.25
2023-08-20T15:22:34.496Z,1.63
2023-08-20T15:25:01.526Z,1.70
2023-08-20T15:27:28.439Z,1.70
2023-08-20T15:29:55.381Z,1.83
2023-08-20T15:32:22.310Z,2.35
2023-08-20T15:34:49.307Z,2.17
2023-08-20T15:37:16.288Z,1.70
2023-08-20T15:39:45.845Z,2.25
2023-08-20T15:42:12.838Z,3.42
2023-08-20T15:44:40.015Z,1.83
2023-08-20T15:47:07.082Z,1.63
2023-08-20T15:49:34.095Z,1.63
2023-08-20T15:52:01.164Z,1.80
2023-08-20T15:54:28.375Z,1.70
2023-08-20T15:56:57.904Z,2.05
2023-08-20T15:59:24.854Z,1.85
2023-08-20T16:01:51.812Z,2.35
2023-08-20T16:04:18.766Z,3.13
2023-08-20T16:06:45.700Z,2.42
2023-08-20T16:09:12.658Z,2.28
2023-08-20T16:11:39.598Z,2.05
2023-08-20T16:14:09.181Z,2.67
2023-08-20T16:16:38.393Z,2.00
2023-08-20T16:19:05.369Z,2.13
2023-08-20T16:21:32.312Z,3.28
2023-08-20T16:23:59.232Z,2.97
2023-08-20T16:26:26.157Z,1.48
2023-08-20T16:28:53.047Z,2.17
2023-08-20T16:31:22.561Z,2.90
2023-08-20T16:33:49.477Z,1.73
2023-08-20T16:36:16.421Z,1.77
2023-08-20T16:38:43.364Z,2.28
2023-08-20T16:41:10.297Z,2.50
2023-08-20T16:43:37.253Z,1.63
2023-08-20T16:46:04.265Z,1.98
2023-08-20T16:48:33.824Z,3.10
2023-08-20T16:51:00.946Z,1.70
2023-08-20T16:53:28.440Z,1.73
2023-08-20T16:55:55.705Z,2.22
2023-08-20T16:58:24.150Z,1.67
2023-08-20T17:00:51.339Z,2.50
2023-08-20T17:03:18.523Z,1.70
2023-08-20T17:05:48.152Z,1.63
2023-08-20T17:08:15.095Z,1.70
2023-08-20T17:10:42.042Z,2.67
2023-08-20T17:13:12.218Z,1.98
2023-08-20T17:15:39.628Z,1.83
2023-08-20T17:18:07.138Z,2.63
2023-08-20T17:20:34.125Z,3.15
2023-08-20T17:23:04.223Z,1.75
2023-08-20T17:25:31.211Z,2.42
2023-08-20T17:27:58.123Z,1.95
2023-08-20T17:30:25.107Z,2.15
2023-08-20T17:32:52.088Z,2.08
2023-08-20T17:35:19.280Z,2.67
2023-08-20T17:37:46.239Z,1.98
2023-08-20T17:40:16.008Z,1.83
2023-08-20T17:42:43.257Z,2.22
2023-08-20T17:45:10.572Z,2.22
2023-08-20T17:47:37.572Z,1.92
2023-08-20T17:50:05.327Z,1.98
2023-08-20T17:52:32.296Z,1.88
2023-08-20T17:54:59.264Z,1.98
2023-08-20T17:57:28.828Z,1.60
2023-08-20T17:59:55.892Z,1.90
2023-08-20T18:02:22.900Z,2.20
2023-08-20T18:04:49.941Z,2.97
2023-08-20T18:07:16.881Z,2.42
2023-08-20T18:09:43.845Z,1.98
2023-08-20T18:12:10.780Z,2.22
2023-08-20T18:14:40.338Z,2.15
2023-08-20T18:17:07.346Z,1.70
2023-08-20T18:19:34.406Z,2.17
2023-08-20T18:22:01.329Z,2.55
2023-08-20T18:24:28.307Z,2.05
2023-08-20T18:26:55.647Z,2.08
2023-08-20T18:29:22.609Z,1.98
2023-08-20T18:31:52.157Z,1.92
2023-08-20T18:34:19.296Z,2.85
2023-08-20T18:36:46.225Z,2.70
2023-08-20T18:39:13.183Z,3.10
2023-08-20T18:41:40.136Z,2.92
2023-08-20T18:44:07.092Z,2.58
2023-08-20T18:46:34.094Z,2.13
2023-08-20T18:49:03.731Z,1.80
2023-08-20T18:51:31.086Z,2.13
2023-08-20T18:53:58.058Z,2.73
2023-08-20T18:56:24.999Z,2.05
2023-08-20T18:58:51.980Z,2.83
2023-08-20T19:01:18.985Z,2.40
2023-08-20T19:03:46.092Z,2.20
2023-08-20T19:06:15.778Z,2.83
2023-08-20T19:08:42.777Z,2.50
2023-08-20T19:11:09.738Z,3.73
2023-08-20T19:13:36.709Z,2.60
2023-08-20T19:16:03.827Z,3.80
2023-08-20T19:18:30.989Z,2.50
2023-08-20T19:20:58.006Z,2.20
2023-08-20T19:23:27.545Z,2.60
2023-08-20T19:25:54.864Z,2.30
2023-08-20T19:28:21.956Z,2.97
2023-08-20T19:30:50.156Z,4.17
2023-08-20T19:33:18.390Z,2.70
2023-08-20T19:35:46.285Z,2.60
2023-08-20T19:38:13.637Z,2.60
2023-08-20T19:40:45.917Z,2.70
2023-08-20T19:43:12.929Z,2.47
2023-08-20T19:45:39.892Z,3.27
2023-08-20T19:48:07.615Z,3.00
2023-08-20T19:50:34.625Z,2.97
2023-08-20T19:53:01.617Z,3.13
2023-08-20T19:55:28.625Z,3.37
2023-08-20T19:57:59.586Z,2.87
2023-08-20T20:00:26.736Z,3.30
2023-08-20T20:02:53.863Z,5.40
2023-08-20T20:05:22.097Z,5.03
2023-08-20T20:07:49.214Z,4.53
2023-08-20T20:10:16.705Z,6.57
2023-08-20T20:12:43.730Z,3.97
2023-08-20T20:15:13.711Z,2.93
2023-08-20T20:17:40.673Z,3.50
2023-08-20T20:20:09.398Z,3.17
2023-08-20T20:22:36.649Z,4.23
2023-08-20T20:25:04.150Z,4.47
2023-08-20T20:27:31.111Z,3.60
2023-08-20T20:29:58.053Z,4.97
2023-08-20T20:32:27.670Z,5.07
2023-08-20T20:34:54.596Z,2.90
2023-08-20T20:37:21.531Z,2.87
2023-08-20T20:39:48.456Z,2.77
2023-08-20T20:42:15.439Z,4.67
2023-08-20T20:44:42.364Z,2.63
2023-08-20T20:47:09.313Z,2.70
2023-08-20T20:49:39.013Z,2.70
2023-08-20T20:52:06.893Z,3.00
2023-08-20T20:54:33.798Z,2.90
2023-08-20T20:57:00.772Z,4.03
2023-08-20T20:59:27.728Z,3.67
2023-08-20T21:01:54.690Z,4.90
2023-08-20T21:04:21.644Z,3.30
2023-08-20T21:06:51.437Z,5.00
2023-08-20T21:09:18.614Z,2.67
2023-08-20T21:11:45.582Z,4.10
2023-08-20T21:14:12.613Z,4.23
2023-08-20T21:16:39.609Z,2.70
2023-08-20T21:19:06.673Z,3.97
2023-08-20T21:21:33.654Z,4.67
2023-08-20T21:24:03.272Z,4.33
2023-08-20T21:26:30.283Z,4.37
2023-08-20T21:28:57.224Z,3.27
2023-08-20T21:31:24.241Z,3.10
2023-08-20T21:33:51.255Z,3.80
2023-08-20T21:36:18.189Z,2.90
2023-08-20T21:38:45.115Z,4.23
2023-08-20T21:41:14.689Z,3.10
2023-08-20T21:43:41.640Z,2.80
2023-08-20T21:46:08.663Z,4.57
2023-08-20T21:48:35.648Z,2.63
2023-08-20T21:51:02.590Z,2.37
2023-08-20T21:53:29.639Z,3.70
2023-08-20T21:55:57.064Z,2.97
2023-08-20T21:58:26.656Z,3.70
2023-08-20T22:00:53.614Z,4.73
2023-08-20T22:03:20.746Z,3.50
2023-08-20T22:05:47.929Z,2.97
2023-08-20T22:08:15.426Z,3.37
2023-08-20T22:10:42.371Z,3.87
2023-08-20T22:13:09.348Z,3.03
2023-08-20T22:15:38.946Z,3.00
2023-08-20T22:18:06.395Z,3.40
2023-08-20T22:20:33.366Z,2.63
2023-08-20T22:23:00.320Z,2.90
2023-08-20T22:25:27.308Z,4.03
2023-08-20T22:27:54.245Z,3.30
2023-08-20T22:30:21.599Z,2.80
2023-08-20T22:32:51.218Z,3.03
2023-08-20T22:35:18.371Z,2.83
2023-08-20T22:38:03.673Z,3.47
2023-08-20T22:40:30.637Z,5.17
2023-08-20T22:42:57.696Z,3.03
2023-08-20T22:45:24.720Z,3.17
2023-08-20T22:47:54.382Z,3.10
2023-08-20T22:50:21.434Z,4.20
2023-08-20T22:52:48.695Z,3.13
2023-08-20T22:55:15.704Z,3.70
2023-08-20T22:57:42.740Z,4.77
2023-08-20T23:00:11.120Z,3.33
2023-08-20T23:02:38.598Z,3.23
2023-08-20T23:05:09.351Z,2.60
2023-08-20T23:07:36.418Z,3.03
2023-08-20T23:10:03.868Z,2.83
2023-08-20T23:12:30.933Z,3.50
2023-08-20T23:14:58.896Z,3.10
2023-08-20T23:17:25.871Z,3.27
2023-08-20T23:19:52.939Z,4.43
2023-08-20T23:22:23.047Z,3.63
2023-08-20T23:24:50.070Z,2.80
2023-08-20T23:27:17.086Z,3.00
2023-08-20T23:29:44.302Z,3.00
2023-08-20T23:32:11.325Z,3.67
2023-08-20T23:34:38.309Z,3.23
2023-08-20T23:37:05.311Z,2.93
2023-08-20T23:39:34.908Z,3.57
2023-08-20T23:42:01.950Z,4.07
2023-08-20T23:44:28.925Z,4.13
2023-08-20T23:46:55.993Z,5.03
2023-08-20T23:49:22.974Z,3.07
2023-08-20T23:51:49.965Z,3.33
2023-08-20T23:54:16.905Z,3.57
2023-08-20T23:56:46.618Z,3.20
2023-08-20T23:59:13.604Z,2.93
